createdAt,value
2019-05-07T00:00:45.318Z,87.47
2019-05-07T00:01:45.293Z,87.37
2019-05-07T00:02:45.284Z,87.57
2019-05-07T00:03:45.273Z,87.68
2019-05-07T00:04:45.261Z,87.37
2019-05-07T00:05:45.273Z,88.09
2019-05-07T00:06:45.242Z,88.20
2019-05-07T00:07:45.222Z,88.51
2019-05-07T00:08:45.222Z,88.71
2019-05-07T00:09:45.202Z,88.61
2019-05-07T00:10:45.193Z,88.61
2019-05-07T00:11:45.192Z,88.71
2019-05-07T00:12:45.171Z,88.92
2019-05-07T00:13:45.162Z,88.61
2019-05-07T00:14:58.142Z,88.92
2019-05-07T00:15:46.142Z,88.92
2019-05-07T00:16:45.141Z,88.51
2019-05-07T00:17:45.120Z,88.09
2019-05-07T00:18:45.105Z,87.88
2019-05-07T00:19:45.091Z,87.88
2019-05-07T00:20:45.080Z,87.78
2019-05-07T00:21:45.088Z,87.78
2019-05-07T00:22:45.060Z,87.57
2019-05-07T00:23:45.058Z,87.16
2019-05-07T00:24:45.039Z,87.05
2019-05-07T00:25:45.027Z,88.30
2019-05-07T00:26:45.029Z,88.02
2019-05-07T00:27:45.007Z,87.88
2019-05-07T00:28:45.003Z,88.13
2019-05-07T00:29:44.980Z,88.02
2019-05-07T00:30:44.967Z,87.82
2019-05-07T00:31:44.976Z,87.71
2019-05-07T00:32:44.948Z,88.23
2019-05-07T00:33:44.938Z,88.96
2019-05-07T00:34:44.927Z,89.48
2019-05-07T00:35:44.917Z,89.58
2019-05-07T00:36:44.917Z,89.17
2019-05-07T00:37:44.898Z,89.17
2019-05-07T00:38:44.877Z,89.17
2019-05-07T00:39:44.875Z,89.27
2019-05-07T00:40:44.857Z,89.58
2019-05-07T00:41:44.856Z,89.48
2019-05-07T00:42:44.836Z,89.06
2019-05-07T00:43:44.827Z,88.65
2019-05-07T00:44:44.816Z,88.23
2019-05-07T00:45:44.805Z,87.82
2019-05-07T00:46:44.813Z,87.40
2019-05-07T00:47:44.787Z,88.54
2019-05-07T00:48:44.774Z,88.96
2019-05-07T00:49:44.757Z,89.06
2019-05-07T00:50:44.745Z,88.96
2019-05-07T00:51:44.744Z,88.65
2019-05-07T00:52:44.725Z,88.44
2019-05-07T00:53:44.722Z,88.44
2019-05-07T00:54:44.704Z,88.44
2019-05-07T00:55:44.695Z,88.34
2019-05-07T00:56:44.693Z,88.02
2019-05-07T00:57:44.673Z,87.92
2019-05-07T00:58:44.664Z,88.13
2019-05-07T00:59:44.644Z,88.75
2019-05-07T01:00:44.634Z,89.06
2019-05-07T01:01:44.641Z,88.90
2019-05-07T01:02:44.612Z,88.90
2019-05-07T01:03:44.602Z,88.69
2019-05-07T01:04:44.593Z,88.48
2019-05-07T01:05:44.582Z,88.38
2019-05-07T01:06:44.582Z,88.38
2019-05-07T01:07:44.562Z,88.28
2019-05-07T01:08:44.551Z,89.21
2019-05-07T01:09:44.541Z,89.73
2019-05-07T01:10:44.521Z,90.04
2019-05-07T01:11:44.547Z,89.94
2019-05-07T01:12:44.501Z,89.42
2019-05-07T01:13:44.491Z,89.52
2019-05-07T01:14:44.480Z,89.73
2019-05-07T01:15:44.470Z,89.83
2019-05-07T01:16:44.465Z,90.04
2019-05-07T01:17:44.463Z,89.83
2019-05-07T01:18:44.440Z,89.83
2019-05-07T01:19:44.429Z,89.94
2019-05-07T01:20:44.410Z,90.14
2019-05-07T01:21:44.409Z,89.98
2019-05-07T01:22:44.408Z,90.04
2019-05-07T01:23:44.381Z,90.08
2019-05-07T01:24:44.370Z,89.98
2019-05-07T01:25:44.358Z,89.52
2019-05-07T01:26:44.347Z,89.77
2019-05-07T01:27:44.350Z,89.42
2019-05-07T01:28:44.327Z,90.04
2019-05-07T01:29:44.308Z,90.25
2019-05-07T01:30:44.306Z,90.39
2019-05-07T01:31:44.301Z,90.14
2019-05-07T01:32:44.298Z,90.08
2019-05-07T01:33:44.269Z,90.29
2019-05-07T01:34:44.260Z,90.19
2019-05-07T01:35:44.247Z,90.08
2019-05-07T01:36:44.236Z,90.19
2019-05-07T01:37:44.237Z,90.39
2019-05-07T01:38:44.222Z,90.29
2019-05-07T01:39:44.207Z,89.87
2019-05-07T01:40:44.196Z,89.67
2019-05-07T01:41:44.185Z,90.29
2019-05-07T01:42:44.185Z,90.60
2019-05-07T01:43:44.156Z,90.70
2019-05-07T01:44:44.153Z,90.85
2019-05-07T01:45:49.025Z,90.75
2019-05-07T01:46:45.124Z,90.44
2019-05-07T01:47:44.125Z,90.64
2019-05-07T01:48:44.105Z,90.85
2019-05-07T01:49:44.097Z,90.85
2019-05-07T01:50:44.086Z,90.95
2019-05-07T01:51:44.073Z,91.16
2019-05-07T01:52:44.234Z,91.27
2019-05-07T01:53:44.057Z,91.58
2019-05-07T01:54:47.139Z,91.37
2019-05-07T01:55:44.023Z,90.95
2019-05-07T01:56:44.013Z,90.64
2019-05-07T01:57:44.004Z,90.33
2019-05-07T01:58:44.003Z,90.95
2019-05-07T01:59:43.982Z,90.95
2019-05-07T02:00:43.972Z,91.06
2019-05-07T02:01:43.962Z,90.95
2019-05-07T02:02:43.952Z,90.85
2019-05-07T02:03:43.955Z,90.79
2019-05-07T02:04:43.931Z,90.89
2019-05-07T02:05:43.920Z,90.89
2019-05-07T02:06:43.901Z,91.00
2019-05-07T02:07:43.891Z,91.00
2019-05-07T02:08:43.900Z,91.20
2019-05-07T02:09:43.870Z,90.69
2019-05-07T02:10:43.860Z,90.47
2019-05-07T02:11:43.850Z,90.37
2019-05-07T02:12:43.840Z,90.58
2019-05-07T02:13:43.840Z,90.79
2019-05-07T02:14:43.819Z,91.10
2019-05-07T02:15:57.183Z,91.00
2019-05-07T02:16:44.791Z,90.89
2019-05-07T02:17:43.787Z,90.58
2019-05-07T02:18:43.790Z,90.58
2019-05-07T02:19:43.759Z,90.37
2019-05-07T02:20:43.748Z,90.58
2019-05-07T02:21:43.738Z,90.79
2019-05-07T02:22:43.728Z,90.79
2019-05-07T02:23:43.728Z,91.20
2019-05-07T02:24:43.711Z,91.56
2019-05-07T02:25:43.701Z,91.77
2019-05-07T02:26:43.704Z,91.66
2019-05-07T02:27:43.678Z,91.46
2019-05-07T02:28:43.677Z,91.35
2019-05-07T02:29:43.655Z,91.14
2019-05-07T02:30:44.592Z,91.04
2019-05-07T02:31:44.379Z,91.46
2019-05-07T02:32:43.659Z,91.66
2019-05-07T02:33:43.877Z,91.87
2019-05-07T02:34:44.402Z,91.46
2019-05-07T02:35:44.088Z,91.04
2019-05-07T02:36:43.717Z,90.83
2019-05-07T02:37:50.955Z,90.62
2019-05-07T02:38:44.566Z,90.83
2019-05-07T02:39:44.383Z,91.46
2019-05-07T02:40:43.630Z,91.46
2019-05-07T02:41:44.315Z,91.56
2019-05-07T02:42:44.258Z,91.56
2019-05-07T02:43:43.506Z,91.35
2019-05-07T02:44:43.902Z,90.93
2019-05-07T02:45:44.069Z,90.83
2019-05-07T02:46:43.633Z,90.52
2019-05-07T02:47:43.904Z,91.25
2019-05-07T02:48:43.455Z,91.56
2019-05-07T02:49:44.025Z,91.14
2019-05-07T02:50:43.798Z,90.93
2019-05-07T02:51:43.890Z,90.93
2019-05-07T02:52:44.000Z,90.83
2019-05-07T02:53:43.694Z,90.93
2019-05-07T02:54:43.753Z,91.04
2019-05-07T02:55:43.712Z,90.72
2019-05-07T02:56:43.579Z,90.83
2019-05-07T02:57:43.606Z,92.02
2019-05-07T02:58:43.585Z,92.54
2019-05-07T02:59:44.051Z,92.64
2019-05-07T03:00:43.616Z,92.95
2019-05-07T03:01:43.609Z,92.85
2019-05-07T03:02:43.855Z,92.74
2019-05-07T03:03:44.876Z,92.54
2019-05-07T03:04:43.665Z,92.74
2019-05-07T03:05:43.562Z,92.64
2019-05-07T03:06:44.178Z,92.85
2019-05-07T03:07:43.240Z,93.05
2019-05-07T03:08:43.985Z,93.16
2019-05-07T03:09:43.424Z,92.74
2019-05-07T03:10:43.734Z,92.43
2019-05-07T03:11:43.630Z,92.12
2019-05-07T03:12:43.302Z,92.33
2019-05-07T03:13:43.427Z,92.33
2019-05-07T03:14:43.832Z,92.64
2019-05-07T03:15:43.825Z,92.85
2019-05-07T03:16:48.450Z,93.05
2019-05-07T03:17:44.122Z,92.95
2019-05-07T03:18:43.981Z,92.95
2019-05-07T03:19:43.254Z,92.95
2019-05-07T03:20:43.165Z,93.05
2019-05-07T03:21:44.139Z,93.16
2019-05-07T03:22:43.152Z,92.85
2019-05-07T03:23:43.083Z,92.64
2019-05-07T03:24:43.602Z,92.64
2019-05-07T03:25:43.316Z,92.33
2019-05-07T03:26:43.658Z,92.33
2019-05-07T03:27:43.274Z,92.54
2019-05-07T03:28:43.037Z,92.95
2019-05-07T03:29:44.177Z,92.85
2019-05-07T03:30:45.703Z,92.95
2019-05-07T03:31:46.812Z,93.05
2019-05-07T03:32:47.563Z,93.16
2019-05-07T03:33:47.307Z,93.05
2019-05-07T03:34:46.650Z,93.16
2019-05-07T03:35:46.570Z,92.74
2019-05-07T03:36:47.615Z,92.33
2019-05-07T03:37:44.287Z,92.54
2019-05-07T03:38:43.921Z,92.64
2019-05-07T03:39:43.453Z,92.85
2019-05-07T03:40:44.805Z,92.85
2019-05-07T03:41:43.466Z,92.74
2019-05-07T03:42:43.932Z,92.64
2019-05-07T03:43:43.559Z,92.54
2019-05-07T03:44:44.651Z,92.54
2019-05-07T03:45:43.421Z,92.54
2019-05-07T03:46:56.833Z,92.43
2019-05-07T03:47:44.118Z,92.54
2019-05-07T03:48:43.970Z,92.43
2019-05-07T03:49:43.070Z,92.22
2019-05-07T03:50:43.261Z,92.22
2019-05-07T03:51:44.205Z,92.12
2019-05-07T03:52:43.091Z,91.91
2019-05-07T03:53:43.618Z,92.33
2019-05-07T03:54:43.200Z,92.22
2019-05-07T03:55:44.772Z,92.08
2019-05-07T03:56:43.609Z,92.29
2019-05-07T03:57:43.578Z,91.97
2019-05-07T03:58:43.507Z,91.91
2019-05-07T03:59:43.340Z,91.91
2019-05-07T04:00:44.314Z,91.77
2019-05-07T04:01:43.146Z,91.97
2019-05-07T04:02:43.680Z,92.39
2019-05-07T04:03:44.742Z,91.97
2019-05-07T04:04:43.256Z,92.54
2019-05-07T04:05:43.511Z,92.49
2019-05-07T04:06:43.423Z,92.29
2019-05-07T04:07:43.205Z,91.35
2019-05-07T04:08:43.438Z,91.25
2019-05-07T04:09:43.785Z,91.35
2019-05-07T04:10:44.376Z,90.83
2019-05-07T04:11:43.250Z,90.83
2019-05-07T04:12:44.181Z,90.83
2019-05-07T04:13:44.016Z,90.83
2019-05-07T04:14:43.192Z,90.83
2019-05-07T04:15:43.922Z,91.35
2019-05-07T04:16:44.085Z,91.25
2019-05-07T04:17:42.987Z,91.14
2019-05-07T04:18:43.691Z,90.93
2019-05-07T04:19:44.057Z,91.25
2019-05-07T04:20:43.558Z,91.56
2019-05-07T04:21:43.515Z,91.66
2019-05-07T04:22:43.313Z,91.97
2019-05-07T04:23:43.672Z,91.35
2019-05-07T04:24:42.995Z,91.14
2019-05-07T04:25:43.558Z,90.72
2019-05-07T04:26:43.031Z,90.83
2019-05-07T04:27:46.735Z,90.62
2019-05-07T04:28:43.595Z,90.62
2019-05-07T04:29:42.995Z,90.41
2019-05-07T04:30:43.777Z,90.52
2019-05-07T04:31:43.589Z,90.72
2019-05-07T04:32:43.363Z,91.14
2019-05-07T04:33:43.908Z,91.25
2019-05-07T04:34:44.484Z,91.14
2019-05-07T04:35:43.488Z,90.62
2019-05-07T04:36:43.579Z,90.10
2019-05-07T04:37:42.849Z,89.79
2019-05-07T04:38:44.025Z,89.89
2019-05-07T04:39:42.873Z,89.89
2019-05-07T04:40:43.384Z,89.69
2019-05-07T04:41:43.429Z,90.20
2019-05-07T04:42:42.794Z,90.31
2019-05-07T04:43:43.426Z,90.00
2019-05-07T04:44:43.745Z,89.89
2019-05-07T04:45:43.236Z,89.69
2019-05-07T04:46:47.531Z,89.69
2019-05-07T04:47:47.552Z,90.00
2019-05-07T04:48:43.828Z,90.31
2019-05-07T04:49:43.687Z,89.89
2019-05-07T04:50:46.642Z,89.37
2019-05-07T04:51:43.527Z,89.37
2019-05-07T04:52:43.690Z,89.79
2019-05-07T04:53:42.994Z,90.35
2019-05-07T04:54:43.744Z,90.56
2019-05-07T04:55:43.107Z,90.66
2019-05-07T04:56:43.625Z,90.56
2019-05-07T04:57:43.809Z,90.45
2019-05-07T04:58:43.323Z,90.45
2019-05-07T04:59:42.752Z,90.14
2019-05-07T05:00:43.089Z,90.25
2019-05-07T05:01:43.585Z,90.56
2019-05-07T05:02:43.531Z,90.66
2019-05-07T05:03:43.717Z,90.14
2019-05-07T05:04:43.924Z,90.31
2019-05-07T05:05:43.539Z,90.72
2019-05-07T05:06:42.453Z,90.41
2019-05-07T05:07:43.185Z,89.89
2019-05-07T05:08:43.527Z,89.89
2019-05-07T05:09:42.675Z,90.06
2019-05-07T05:10:43.275Z,89.54
2019-05-07T05:11:43.882Z,88.92
2019-05-07T05:12:42.866Z,88.60
2019-05-07T05:13:44.368Z,88.19
2019-05-07T05:14:43.518Z,87.94
2019-05-07T05:15:43.094Z,87.21
2019-05-07T05:16:42.555Z,86.80
2019-05-07T05:17:50.412Z,87.01
2019-05-07T05:18:42.795Z,87.32
2019-05-07T05:19:43.752Z,88.67
2019-05-07T05:20:42.226Z,88.77
2019-05-07T05:21:42.075Z,88.35
2019-05-07T05:22:42.491Z,88.42
2019-05-07T05:23:42.039Z,88.42
2019-05-07T05:24:42.394Z,87.69
2019-05-07T05:25:43.136Z,86.86
2019-05-07T05:26:41.966Z,86.34
2019-05-07T05:27:42.961Z,86.34
2019-05-07T05:28:42.102Z,87.07
2019-05-07T05:29:42.917Z,88.00
2019-05-07T05:30:42.412Z,87.48
2019-05-07T05:31:42.278Z,87.86
2019-05-07T05:32:42.438Z,88.07
2019-05-07T05:33:42.123Z,87.65
2019-05-07T05:34:42.616Z,87.76
2019-05-07T05:35:43.127Z,87.61
2019-05-07T05:36:42.564Z,87.30
2019-05-07T05:37:42.903Z,87.19
2019-05-07T05:38:42.326Z,87.09
2019-05-07T05:39:42.625Z,86.47
2019-05-07T05:40:42.713Z,85.33
2019-05-07T05:41:42.217Z,85.36
2019-05-07T05:42:42.863Z,85.57
2019-05-07T05:43:42.546Z,85.78
2019-05-07T05:44:41.826Z,85.78
2019-05-07T05:45:42.630Z,86.19
2019-05-07T05:46:42.810Z,86.30
2019-05-07T05:47:44.826Z,86.09
2019-05-07T05:48:42.483Z,86.36
2019-05-07T05:49:42.858Z,86.05
2019-05-07T05:50:42.248Z,85.22
2019-05-07T05:51:42.976Z,84.91
2019-05-07T05:52:42.491Z,85.12
2019-05-07T05:53:43.374Z,84.81
2019-05-07T05:54:42.624Z,85.43
2019-05-07T05:55:42.794Z,85.64
2019-05-07T05:56:42.691Z,85.64
2019-05-07T05:57:42.444Z,84.81
2019-05-07T05:58:43.111Z,84.08
2019-05-07T05:59:48.988Z,83.87
2019-05-07T06:00:42.383Z,83.87
2019-05-07T06:01:42.630Z,83.94
2019-05-07T06:02:44.040Z,84.36
2019-05-07T06:03:43.023Z,84.46
2019-05-07T06:04:42.037Z,84.05
2019-05-07T06:05:42.037Z,84.36
2019-05-07T06:06:42.368Z,84.46
2019-05-07T06:07:42.719Z,84.36
2019-05-07T06:08:43.370Z,84.52
2019-05-07T06:09:42.265Z,84.63
2019-05-07T06:10:42.488Z,84.31
2019-05-07T06:11:42.936Z,84.21
2019-05-07T06:12:42.839Z,84.17
2019-05-07T06:13:41.954Z,83.86
2019-05-07T06:14:42.452Z,83.55
2019-05-07T06:15:42.022Z,83.55
2019-05-07T06:16:42.035Z,83.45
2019-05-07T06:17:42.546Z,84.17
2019-05-07T06:18:41.857Z,84.17
2019-05-07T06:19:42.397Z,83.14
2019-05-07T06:20:42.816Z,83.65
2019-05-07T06:21:41.901Z,83.45
2019-05-07T06:22:42.478Z,83.76
2019-05-07T06:23:42.024Z,83.34
2019-05-07T06:24:42.698Z,83.03
2019-05-07T06:25:42.860Z,83.51
2019-05-07T06:26:42.568Z,83.31
2019-05-07T06:27:41.807Z,83.51
2019-05-07T06:28:42.535Z,83.51
2019-05-07T06:29:42.641Z,83.62
2019-05-07T06:30:41.792Z,84.09
2019-05-07T06:31:42.213Z,83.47
2019-05-07T06:32:42.966Z,82.95
2019-05-07T06:33:43.009Z,82.86
2019-05-07T06:34:44.520Z,82.03
2019-05-07T06:35:42.861Z,82.86
2019-05-07T06:36:42.376Z,82.03
2019-05-07T06:37:42.763Z,82.75
2019-05-07T06:38:42.689Z,83.06
2019-05-07T06:39:42.133Z,82.54
2019-05-07T06:40:42.353Z,81.99
2019-05-07T06:41:41.864Z,81.26
2019-05-07T06:42:42.776Z,81.05
2019-05-07T06:43:42.147Z,81.26
2019-05-07T06:44:42.747Z,80.95
2019-05-07T06:45:42.195Z,80.22
2019-05-07T06:46:41.923Z,80.19
2019-05-07T06:47:42.487Z,79.26
2019-05-07T06:48:43.667Z,79.16
2019-05-07T06:49:42.823Z,78.95
2019-05-07T06:50:43.103Z,79.16
2019-05-07T06:51:41.992Z,78.22
2019-05-07T06:52:42.566Z,79.16
2019-05-07T06:53:42.246Z,79.16
2019-05-07T06:54:42.725Z,78.39
2019-05-07T06:55:42.684Z,78.91
2019-05-07T06:56:42.110Z,79.02
2019-05-07T06:57:42.523Z,78.77
2019-05-07T06:58:41.913Z,77.94
2019-05-07T06:59:42.338Z,77.33
2019-05-07T07:00:42.245Z,77.29
2019-05-07T07:01:42.321Z,77.19
2019-05-07T07:02:41.956Z,77.19
2019-05-07T07:03:41.996Z,77.77
2019-05-07T07:04:42.367Z,77.56
2019-05-07T07:05:42.445Z,77.04
2019-05-07T07:06:42.648Z,76.73
2019-05-07T07:07:42.143Z,74.88
2019-05-07T07:08:41.976Z,75.15
2019-05-07T07:09:42.432Z,74.53
2019-05-07T07:10:42.561Z,74.84
2019-05-07T07:11:42.360Z,74.12
2019-05-07T07:12:42.474Z,74.63
2019-05-07T07:13:42.558Z,74.50
2019-05-07T07:14:42.361Z,74.29
2019-05-07T07:15:42.594Z,73.05
2019-05-07T07:16:42.056Z,73.02
2019-05-07T07:17:41.917Z,72.71
2019-05-07T07:18:49.539Z,72.09
2019-05-07T07:19:42.784Z,72.61
2019-05-07T07:20:40.444Z,72.78
2019-05-07T07:21:42.158Z,71.75
2019-05-07T07:22:42.462Z,71.13
2019-05-07T07:23:42.788Z,70.62
2019-05-07T07:24:42.405Z,70.20
2019-05-07T07:25:40.382Z,70.07
2019-05-07T07:26:42.221Z,69.96
2019-05-07T07:27:42.715Z,69.35
2019-05-07T07:28:40.362Z,69.76
2019-05-07T07:29:41.933Z,70.17
2019-05-07T07:30:42.053Z,70.17
2019-05-07T07:31:42.449Z,69.11
2019-05-07T07:32:42.403Z,70.04
2019-05-07T07:33:40.312Z,70.14
2019-05-07T07:34:42.544Z,69.62
2019-05-07T07:35:40.273Z,69.01
2019-05-07T07:36:42.221Z,69.28
2019-05-07T07:37:40.253Z,70.31
2019-05-07T07:38:42.062Z,69.59
2019-05-07T07:39:40.231Z,68.77
2019-05-07T07:40:42.215Z,69.49
2019-05-07T07:41:42.118Z,69.28
2019-05-07T07:42:42.530Z,69.28
2019-05-07T07:43:41.931Z,68.98
2019-05-07T07:44:42.428Z,69.59
2019-05-07T07:45:42.066Z,69.38
2019-05-07T07:46:42.290Z,67.02
2019-05-07T07:47:42.161Z,63.52
2019-05-07T07:48:40.131Z,62.28
2019-05-07T07:49:42.053Z,62.15
2019-05-07T07:50:42.096Z,61.02
2019-05-07T07:51:44.445Z,61.53
2019-05-07T07:52:42.018Z,61.63
2019-05-07T07:53:42.358Z,62.35
2019-05-07T07:54:40.079Z,63.39
2019-05-07T07:55:40.059Z,62.87
2019-05-07T07:56:50.185Z,62.25
2019-05-07T07:57:42.716Z,62.15
2019-05-07T07:58:41.937Z,61.53
2019-05-07T07:59:42.002Z,59.47
2019-05-07T08:00:40.007Z,59.78
2019-05-07T08:01:41.970Z,58.34
2019-05-07T08:02:42.274Z,58.75
2019-05-07T08:03:41.680Z,59.14
2019-05-07T08:04:42.451Z,58.73
2019-05-07T08:05:39.947Z,57.90
2019-05-07T08:06:41.821Z,57.59
2019-05-07T08:07:39.930Z,58.31
2019-05-07T08:08:39.919Z,58.21
2019-05-07T08:09:39.916Z,56.57
2019-05-07T08:10:39.895Z,56.15
2019-05-07T08:11:39.886Z,54.61
2019-05-07T08:12:42.050Z,54.28
2019-05-07T08:13:39.867Z,53.97
2019-05-07T08:14:39.867Z,54.69
2019-05-07T08:15:39.837Z,53.66
2019-05-07T08:16:39.834Z,53.74
2019-05-07T08:17:41.865Z,54.87
2019-05-07T08:18:39.886Z,51.99
2019-05-07T08:19:39.806Z,52.51
2019-05-07T08:20:39.793Z,52.17
2019-05-07T08:21:41.927Z,53.10
2019-05-07T08:22:42.160Z,53.41
2019-05-07T08:23:39.753Z,53.89
2019-05-07T08:24:39.763Z,53.38
2019-05-07T08:25:39.735Z,53.49
2019-05-07T08:26:39.724Z,49.27
2019-05-07T08:27:41.828Z,49.17
2019-05-07T08:28:41.824Z,48.66
2019-05-07T08:29:39.705Z,49.58
2019-05-07T08:30:41.539Z,49.46
2019-05-07T08:31:39.663Z,50.07
2019-05-07T08:32:39.813Z,50.59
2019-05-07T08:33:39.647Z,48.82
2019-05-07T08:34:39.642Z,48.31
2019-05-07T08:35:41.798Z,48.72
2019-05-07T08:36:39.613Z,47.77
2019-05-07T08:37:39.601Z,48.28
2019-05-07T08:38:39.593Z,46.85
2019-05-07T08:39:39.592Z,46.54
2019-05-07T08:40:41.767Z,46.44
2019-05-07T08:41:39.552Z,46.62
2019-05-07T08:42:41.790Z,44.57
2019-05-07T08:43:39.532Z,46.83
2019-05-07T08:44:39.521Z,46.83
2019-05-07T08:45:39.523Z,44.14
2019-05-07T08:46:39.503Z,45.27
2019-05-07T08:47:39.491Z,43.53
2019-05-07T08:48:39.481Z,44.73
2019-05-07T08:49:40.331Z,44.02
2019-05-07T08:50:39.471Z,44.12
2019-05-07T08:51:39.449Z,41.54
2019-05-07T08:52:39.432Z,42.36
2019-05-07T08:53:39.421Z,40.83
2019-05-07T08:54:39.410Z,40.11
2019-05-07T08:55:39.419Z,39.21
2019-05-07T08:56:39.390Z,40.33
2019-05-07T08:57:39.381Z,39.41
2019-05-07T08:58:39.370Z,39.51
2019-05-07T08:59:39.360Z,40.64
2019-05-07T09:00:39.367Z,40.93
2019-05-07T09:01:39.338Z,40.11
2019-05-07T09:02:39.319Z,40.52
2019-05-07T09:03:39.311Z,42.97
2019-05-07T09:04:39.299Z,43.28
2019-05-07T09:05:39.308Z,43.57
2019-05-07T09:06:39.279Z,45.20
2019-05-07T09:07:39.268Z,44.29
2019-05-07T09:08:39.258Z,43.67
2019-05-07T09:09:39.248Z,41.32
2019-05-07T09:10:39.248Z,41.32
2019-05-07T09:11:39.232Z,42.03
2019-05-07T09:12:39.215Z,40.91
2019-05-07T09:13:39.205Z,42.55
2019-05-07T09:14:39.188Z,41.95
2019-05-07T09:15:39.188Z,40.95
2019-05-07T09:16:39.170Z,43.40
2019-05-07T09:17:39.158Z,41.95
2019-05-07T09:18:39.147Z,42.77
2019-05-07T09:19:51.170Z,44.70
2019-05-07T09:20:42.377Z,41.73
2019-05-07T09:21:39.121Z,41.30
2019-05-07T09:22:39.101Z,42.71
2019-05-07T09:23:39.091Z,40.26
2019-05-07T09:24:39.090Z,39.67
2019-05-07T09:25:39.081Z,41.08
2019-05-07T09:26:39.060Z,43.02
2019-05-07T09:27:39.042Z,43.94
2019-05-07T09:28:39.035Z,40.46
2019-05-07T09:29:39.021Z,39.94
2019-05-07T09:30:39.041Z,39.85
2019-05-07T09:31:39.004Z,39.03
2019-05-07T09:32:38.989Z,41.38
2019-05-07T09:33:38.980Z,41.69
2019-05-07T09:34:38.960Z,40.16
2019-05-07T09:35:39.844Z,40.26
2019-05-07T09:36:38.962Z,41.18
2019-05-07T09:37:38.930Z,41.18
2019-05-07T09:38:38.921Z,39.44
2019-05-07T09:39:38.910Z,41.79
2019-05-07T09:40:38.906Z,42.79
2019-05-07T09:41:38.898Z,44.94
2019-05-07T09:42:38.879Z,40.24
2019-05-07T09:43:38.859Z,40.36
2019-05-07T09:44:38.853Z,44.65
2019-05-07T09:45:38.839Z,43.51
2019-05-07T09:46:38.839Z,41.97
2019-05-07T09:47:38.819Z,40.83
2019-05-07T09:48:38.810Z,42.47
2019-05-07T09:49:38.798Z,41.65
2019-05-07T09:50:38.788Z,40.20
2019-05-07T09:51:38.788Z,40.00
2019-05-07T09:52:38.758Z,41.12
2019-05-07T09:53:38.748Z,41.22
2019-05-07T09:54:38.738Z,38.69
2019-05-07T09:55:38.728Z,39.32
2019-05-07T09:56:38.728Z,40.26
2019-05-07T09:57:38.714Z,40.16
2019-05-07T09:58:39.268Z,40.05
2019-05-07T09:59:38.677Z,39.24
2019-05-07T10:00:38.668Z,38.85
2019-05-07T10:01:38.667Z,40.08
2019-05-07T10:02:38.648Z,40.67
2019-05-07T10:03:38.636Z,40.46
2019-05-07T10:04:38.628Z,41.47
2019-05-07T10:05:38.617Z,39.62
2019-05-07T10:06:38.616Z,43.29
2019-05-07T10:07:38.595Z,41.65
2019-05-07T10:08:38.577Z,40.94
2019-05-07T10:09:38.569Z,43.26
2019-05-07T10:10:38.561Z,42.73
2019-05-07T10:11:38.557Z,43.04
2019-05-07T10:12:38.537Z,43.32
2019-05-07T10:13:38.538Z,40.98
2019-05-07T10:14:38.516Z,43.10
2019-05-07T10:15:38.497Z,41.37
2019-05-07T10:16:38.495Z,41.35
2019-05-07T10:17:38.493Z,41.45
2019-05-07T10:18:38.466Z,37.60
2019-05-07T10:19:38.456Z,40.05
2019-05-07T10:20:38.447Z,37.41
2019-05-07T10:21:38.436Z,37.92
2019-05-07T10:22:38.436Z,37.10
2019-05-07T10:23:38.410Z,37.63
2019-05-07T10:24:38.399Z,39.06
2019-05-07T10:25:38.390Z,39.49
2019-05-07T10:26:40.103Z,42.43
2019-05-07T10:27:38.375Z,41.69
2019-05-07T10:28:38.367Z,42.10
2019-05-07T10:29:38.350Z,38.94
2019-05-07T10:30:38.337Z,39.86
2019-05-07T10:31:38.316Z,39.84
2019-05-07T10:32:38.324Z,38.82
2019-05-07T10:33:38.295Z,40.45
2019-05-07T10:34:38.285Z,37.70
2019-05-07T10:35:38.275Z,37.40
2019-05-07T10:36:38.265Z,38.21
2019-05-07T10:37:38.265Z,36.99
2019-05-07T10:38:38.243Z,37.29
2019-05-07T10:39:38.225Z,39.13
2019-05-07T10:40:38.216Z,37.80
2019-05-07T10:41:38.204Z,37.82
2019-05-07T10:42:38.206Z,38.42
2019-05-07T10:43:38.185Z,40.66
2019-05-07T10:44:38.196Z,42.27
2019-05-07T10:45:38.164Z,41.45
2019-05-07T10:46:38.154Z,37.07
2019-05-07T10:47:38.170Z,36.36
2019-05-07T10:48:38.125Z,37.48
2019-05-07T10:49:38.114Z,40.03
2019-05-07T10:50:39.316Z,40.53
2019-05-07T10:51:38.098Z,41.84
2019-05-07T10:52:38.094Z,40.92
2019-05-07T10:53:38.073Z,39.09
2019-05-07T10:54:38.054Z,41.21
2019-05-07T10:55:38.044Z,38.15
2019-05-07T10:56:38.033Z,38.38
2019-05-07T10:57:38.054Z,38.28
2019-05-07T10:58:38.014Z,38.07
2019-05-07T10:59:38.003Z,38.38
2019-05-07T11:00:37.991Z,37.97
2019-05-07T11:01:37.984Z,38.17
2019-05-07T11:02:39.307Z,37.46
2019-05-07T11:03:37.971Z,40.41
2019-05-07T11:04:42.146Z,41.23
2019-05-07T11:05:38.932Z,38.58
2019-05-07T11:06:37.922Z,40.31
2019-05-07T11:07:37.913Z,41.72
2019-05-07T11:08:37.913Z,37.14
2019-05-07T11:09:37.891Z,37.97
2019-05-07T11:10:37.883Z,36.34
2019-05-07T11:11:37.872Z,36.36
2019-05-07T11:12:37.852Z,38.40
2019-05-07T11:13:37.853Z,40.01
2019-05-07T11:14:37.831Z,41.43
2019-05-07T11:15:37.833Z,40.60
2019-05-07T11:16:37.811Z,36.63
2019-05-07T11:17:37.802Z,35.63
2019-05-07T11:18:37.801Z,36.05
2019-05-07T11:19:37.772Z,36.16
2019-05-07T11:20:48.935Z,36.47
2019-05-07T11:21:38.770Z,39.42
2019-05-07T11:22:37.768Z,39.51
2019-05-07T11:23:37.741Z,40.31
2019-05-07T11:24:37.722Z,37.56
2019-05-07T11:25:37.702Z,36.75
2019-05-07T11:26:37.692Z,37.05
2019-05-07T11:27:37.684Z,40.82
2019-05-07T11:28:37.693Z,42.83
2019-05-07T11:29:37.661Z,43.32
2019-05-07T11:30:37.650Z,39.76
2019-05-07T11:31:37.640Z,39.26
2019-05-07T11:32:37.630Z,40.39
2019-05-07T11:33:37.630Z,36.34
2019-05-07T11:34:37.604Z,38.58
2019-05-07T11:35:37.596Z,36.24
2019-05-07T11:36:37.580Z,38.89
2019-05-07T11:37:37.581Z,39.70
2019-05-07T11:38:37.570Z,37.97
2019-05-07T11:39:37.550Z,41.00
2019-05-07T11:40:37.530Z,37.95
2019-05-07T11:41:37.521Z,38.54
2019-05-07T11:42:37.511Z,39.76
2019-05-07T11:43:37.513Z,39.87
2019-05-07T11:44:37.490Z,39.24
2019-05-07T11:45:37.479Z,35.88
2019-05-07T11:46:37.472Z,36.49
2019-05-07T11:47:37.463Z,37.92
2019-05-07T11:48:37.459Z,35.07
2019-05-07T11:49:37.431Z,34.97
2019-05-07T11:50:37.420Z,36.51
2019-05-07T11:51:37.411Z,37.21
2019-05-07T11:52:37.400Z,38.22
2019-05-07T11:53:37.400Z,38.20
2019-05-07T11:54:37.378Z,38.70
2019-05-07T11:55:37.369Z,39.30
2019-05-07T11:56:37.360Z,36.36
2019-05-07T11:57:37.340Z,38.88
2019-05-07T11:58:37.339Z,40.70
2019-05-07T11:59:37.319Z,36.34
2019-05-07T12:00:37.310Z,36.04
2019-05-07T12:01:46.608Z,35.63
2019-05-07T12:02:38.288Z,35.63
2019-05-07T12:03:37.290Z,35.12
2019-05-07T12:04:37.260Z,36.25
2019-05-07T12:05:37.251Z,36.34
2019-05-07T12:06:37.245Z,37.26
2019-05-07T12:07:37.229Z,33.19
2019-05-07T12:08:44.563Z,35.34
2019-05-07T12:09:38.217Z,36.87
2019-05-07T12:10:37.205Z,37.27
2019-05-07T12:11:37.190Z,35.14
2019-05-07T12:12:37.169Z,35.33
2019-05-07T12:13:37.158Z,35.73
2019-05-07T12:14:37.159Z,35.83
2019-05-07T12:15:37.140Z,35.53
2019-05-07T12:16:37.129Z,34.65
2019-05-07T12:17:37.117Z,35.26
2019-05-07T12:18:37.107Z,36.38
2019-05-07T12:19:37.108Z,35.86
2019-05-07T12:20:37.084Z,37.17
2019-05-07T12:21:37.067Z,37.48
2019-05-07T12:22:37.058Z,36.54
2019-05-07T12:23:37.055Z,34.92
2019-05-07T12:24:37.048Z,37.46
2019-05-07T12:25:37.028Z,37.26
2019-05-07T12:26:37.016Z,34.92
2019-05-07T12:27:37.010Z,36.44
2019-05-07T12:28:36.987Z,38.27
2019-05-07T12:29:36.998Z,36.32
2019-05-07T12:30:36.968Z,36.83
2019-05-07T12:31:36.960Z,33.60
2019-05-07T12:32:36.947Z,34.74
2019-05-07T12:33:36.938Z,36.56
2019-05-07T12:34:36.939Z,37.15
2019-05-07T12:35:36.921Z,37.34
2019-05-07T12:36:36.901Z,36.12
2019-05-07T12:37:36.887Z,35.72
2019-05-07T12:38:36.878Z,36.02
2019-05-07T12:39:36.878Z,35.72
2019-05-07T12:40:36.857Z,35.51
2019-05-07T12:41:36.850Z,34.30
2019-05-07T12:42:36.841Z,35.63
2019-05-07T12:43:36.817Z,34.52
2019-05-07T12:44:36.907Z,34.72
2019-05-07T12:45:36.799Z,37.05
2019-05-07T12:46:36.790Z,36.44
2019-05-07T12:47:36.776Z,38.47
2019-05-07T12:48:36.802Z,37.26
2019-05-07T12:49:36.770Z,38.49
2019-05-07T12:50:36.748Z,38.78
2019-05-07T12:51:37.856Z,38.57
2019-05-07T12:52:36.717Z,35.41